sensor_id;sensor_type;location;lat;lon;timestamp;P1;durP1;ratioP1;P2;durP2;ratioP2
5608;SDS011;2826;51.354;9.588;2022-08-27T00:00:05;32.30;;;16.27;;
5608;SDS011;2826;51.354;9.588;2022-08-27T00:02:35;28.40;;;18.70;;
5608;SDS011;2826;51.354;9.588;2022-08-27T00:05:04;29.60;;;17.27;;
5608;SDS011;2826;51.354;9.588;2022-08-27T00:07:31;32.03;;;17.67;;
5608;SDS011;2826;51.354;9.588;2022-08-27T00:09:58;30.60;;;19.23;;
5608;SDS011;2826;51.354;9.588;2022-08-27T00:12:25;32.37;;;17.20;;
5608;SDS011;2826;51.354;9.588;2022-08-27T00:14:52;26.33;;;17.47;;
5608;SDS011;2826;51.354;9.588;2022-08-27T00:17:18;24.87;;;17.50;;
5608;SDS011;2826;51.354;9.588;2022-08-27T00:19:46;26.30;;;16.17;;
5608;SDS011;2826;51.354;9.588;2022-08-27T00:22:14;27.17;;;15.37;;
5608;SDS011;2826;51.354;9.588;2022-08-27T00:24:41;27.80;;;14.80;;
5608;SDS011;2826;51.354;9.588;2022-08-27T00:27:08;24.23;;;14.90;;
5608;SDS011;2826;51.354;9.588;2022-08-27T00:29:35;25.00;;;13.13;;
5608;SDS011;2826;51.354;9.588;2022-08-27T00:32:02;23.47;;;12.77;;
5608;SDS011;2826;51.354;9.588;2022-08-27T00:34:29;21.50;;;12.30;;
5608;SDS011;2826;51.354;9.588;2022-08-27T00:36:56;20.23;;;13.07;;
5608;SDS011;2826;51.354;9.588;2022-08-27T00:39:24;21.67;;;11.60;;
5608;SDS011;2826;51.354;9.588;2022-08-27T00:41:52;19.90;;;12.30;;
5608;SDS011;2826;51.354;9.588;2022-08-27T00:44:19;20.80;;;10.60;;
5608;SDS011;2826;51.354;9.588;2022-08-27T00:46:47;14.50;;;11.70;;
5608;SDS011;2826;51.354;9.588;2022-08-27T00:49:18;15.07;;;10.03;;
5608;SDS011;2826;51.354;9.588;2022-08-27T00:51:47;23.07;;;11.33;;
5608;SDS011;2826;51.354;9.588;2022-08-27T00:54:18;21.03;;;11.83;;
5608;SDS011;2826;51.354;9.588;2022-08-27T00:56:47;24.80;;;11.57;;
5608;SDS011;2826;51.354;9.588;2022-08-27T00:59:15;18.93;;;10.73;;
5608;SDS011;2826;51.354;9.588;2022-08-27T01:01:43;23.33;;;11.67;;
5608;SDS011;2826;51.354;9.588;2022-08-27T01:04:25;17.30;;;11.10;;
5608;SDS011;2826;51.354;9.588;2022-08-27T01:06:52;19.20;;;11.27;;
5608;SDS011;2826;51.354;9.588;2022-08-27T01:09:20;20.10;;;11.17;;
5608;SDS011;2826;51.354;9.588;2022-08-27T01:11:48;17.30;;;10.13;;
5608;SDS011;2826;51.354;9.588;2022-08-27T01:14:17;16.30;;;9.80;;
5608;SDS011;2826;51.354;9.588;2022-08-27T01:16:47;16.63;;;10.03;;
5608;SDS011;2826;51.354;9.588;2022-08-27T01:19:19;19.00;;;10.60;;
5608;SDS011;2826;51.354;9.588;2022-08-27T01:21:54;22.07;;;10.73;;
5608;SDS011;2826;51.354;9.588;2022-08-27T01:24:30;21.07;;;11.20;;
5608;SDS011;2826;51.354;9.588;2022-08-27T01:27:00;18.97;;;12.20;;
5608;SDS011;2826;51.354;9.588;2022-08-27T01:29:28;17.30;;;11.37;;
5608;SDS011;2826;51.354;9.588;2022-08-27T01:31:57;20.30;;;10.40;;
5608;SDS011;2826;51.354;9.588;2022-08-27T01:34:30;19.00;;;11.30;;
5608;SDS011;2826;51.354;9.588;2022-08-27T01:36:57;20.10;;;11.97;;
5608;SDS011;2826;51.354;9.588;2022-08-27T01:39:24;16.97;;;12.27;;
5608;SDS011;2826;51.354;9.588;2022-08-27T01:41:52;18.40;;;11.77;;
5608;SDS011;2826;51.354;9.588;2022-08-27T01:44:19;23.20;;;12.33;;
5608;SDS011;2826;51.354;9.588;2022-08-27T01:46:46;20.10;;;12.50;;
5608;SDS011;2826;51.354;9.588;2022-08-27T01:49:12;19.10;;;12.40;;
5608;SDS011;2826;51.354;9.588;2022-08-27T01:51:39;27.20;;;13.77;;
5608;SDS011;2826;51.354;9.588;2022-08-27T01:54:06;24.73;;;14.00;;
5608;SDS011;2826;51.354;9.588;2022-08-27T01:56:33;20.13;;;12.83;;
5608;SDS011;2826;51.354;9.588;2022-08-27T01:59:01;26.77;;;15.07;;
5608;SDS011;2826;51.354;9.588;2022-08-27T02:01:28;25.50;;;14.40;;
5608;SDS011;2826;51.354;9.588;2022-08-27T02:03:54;25.53;;;15.20;;
5608;SDS011;2826;51.354;9.588;2022-08-27T02:06:21;28.50;;;16.50;;
5608;SDS011;2826;51.354;9.588;2022-08-27T02:08:48;27.47;;;16.37;;
5608;SDS011;2826;51.354;9.588;2022-08-27T02:11:15;33.03;;;17.43;;
5608;SDS011;2826;51.354;9.588;2022-08-27T02:13:42;29.60;;;16.97;;
5608;SDS011;2826;51.354;9.588;2022-08-27T02:16:10;29.67;;;16.90;;
5608;SDS011;2826;51.354;9.588;2022-08-27T02:18:39;26.83;;;18.00;;
5608;SDS011;2826;51.354;9.588;2022-08-27T02:21:06;36.93;;;19.47;;
5608;SDS011;2826;51.354;9.588;2022-08-27T02:23:33;31.33;;;20.40;;
5608;SDS011;2826;51.354;9.588;2022-08-27T02:26:00;30.30;;;18.90;;
5608;SDS011;2826;51.354;9.588;2022-08-27T02:28:26;30.43;;;19.77;;
5608;SDS011;2826;51.354;9.588;2022-08-27T02:30:53;37.60;;;20.90;;
5608;SDS011;2826;51.354;9.588;2022-08-27T02:33:21;32.90;;;20.23;;
5608;SDS011;2826;51.354;9.588;2022-08-27T02:35:48;37.40;;;18.37;;
5608;SDS011;2826;51.354;9.588;2022-08-27T02:38:15;41.07;;;20.13;;
5608;SDS011;2826;51.354;9.588;2022-08-27T02:40:42;41.20;;;20.00;;
5608;SDS011;2826;51.354;9.588;2022-08-27T02:43:08;42.77;;;20.43;;
5608;SDS011;2826;51.354;9.588;2022-08-27T02:45:36;36.67;;;19.50;;
5608;SDS011;2826;51.354;9.588;2022-08-27T02:48:02;34.73;;;20.30;;
5608;SDS011;2826;51.354;9.588;2022-08-27T02:50:31;31.20;;;19.30;;
5608;SDS011;2826;51.354;9.588;2022-08-27T02:52:59;42.33;;;18.57;;
5608;SDS011;2826;51.354;9.588;2022-08-27T02:55:27;42.60;;;19.90;;
5608;SDS011;2826;51.354;9.588;2022-08-27T02:57:54;35.00;;;17.37;;
5608;SDS011;2826;51.354;9.588;2022-08-27T03:00:22;27.77;;;17.53;;
5608;SDS011;2826;51.354;9.588;2022-08-27T03:02:50;32.93;;;17.23;;
5608;SDS011;2826;51.354;9.588;2022-08-27T03:05:17;29.40;;;16.70;;
5608;SDS011;2826;51.354;9.588;2022-08-27T03:07:46;28.63;;;15.10;;
5608;SDS011;2826;51.354;9.588;2022-08-27T03:10:15;52.50;;;16.40;;
5608;SDS011;2826;51.354;9.588;2022-08-27T03:12:44;39.20;;;17.07;;
5608;SDS011;2826;51.354;9.588;2022-08-27T03:15:11;32.40;;;15.37;;
5608;SDS011;2826;51.354;9.588;2022-08-27T03:17:40;30.30;;;15.07;;
5608;SDS011;2826;51.354;9.588;2022-08-27T03:20:25;27.97;;;14.87;;
5608;SDS011;2826;51.354;9.588;2022-08-27T03:22:54;31.80;;;16.73;;
5608;SDS011;2826;51.354;9.588;2022-08-27T03:25:21;33.37;;;18.40;;
5608;SDS011;2826;51.354;9.588;2022-08-27T03:27:48;36.10;;;19.53;;
5608;SDS011;2826;51.354;9.588;2022-08-27T03:30:16;36.50;;;19.40;;
5608;SDS011;2826;51.354;9.588;2022-08-27T03:32:45;30.30;;;18.07;;
5608;SDS011;2826;51.354;9.588;2022-08-27T03:35:12;35.30;;;19.27;;
5608;SDS011;2826;51.354;9.588;2022-08-27T03:37:40;41.70;;;18.60;;
5608;SDS011;2826;51.354;9.588;2022-08-27T03:40:09;28.20;;;17.10;;
5608;SDS011;2826;51.354;9.588;2022-08-27T03:42:38;27.30;;;16.87;;
5608;SDS011;2826;51.354;9.588;2022-08-27T03:45:06;43.80;;;18.50;;
5608;SDS011;2826;51.354;9.588;2022-08-27T03:47:34;34.23;;;17.63;;
5608;SDS011;2826;51.354;9.588;2022-08-27T03:50:01;29.70;;;16.03;;
5608;SDS011;2826;51.354;9.588;2022-08-27T03:52:31;31.47;;;18.43;;
5608;SDS011;2826;51.354;9.588;2022-08-27T03:54:58;33.10;;;16.73;;
5608;SDS011;2826;51.354;9.588;2022-08-27T03:57:27;26.73;;;16.60;;
5608;SDS011;2826;51.354;9.588;2022-08-27T03:59:54;32.77;;;17.83;;
5608;SDS011;2826;51.354;9.588;2022-08-27T04:02:21;30.77;;;16.50;;
5608;SDS011;2826;51.354;9.588;2022-08-27T04:04:48;38.53;;;17.60;;
5608;SDS011;2826;51.354;9.588;2022-08-27T04:07:15;30.13;;;15.17;;
5608;SDS011;2826;51.354;9.588;2022-08-27T04:09:41;26.13;;;15.23;;
5608;SDS011;2826;51.354;9.588;2022-08-27T04:12:08;33.20;;;15.40;;
5608;SDS011;2826;51.354;9.588;2022-08-27T04:14:37;27.40;;;15.80;;
5608;SDS011;2826;51.354;9.588;2022-08-27T04:17:04;24.50;;;14.87;;
5608;SDS011;2826;51.354;9.588;2022-08-27T04:19:31;27.67;;;13.93;;
5608;SDS011;2826;51.354;9.588;2022-08-27T04:22:00;27.10;;;13.93;;
5608;SDS011;2826;51.354;9.588;2022-08-27T04:24:28;34.40;;;15.70;;
5608;SDS011;2826;51.354;9.588;2022-08-27T04:26:57;32.00;;;12.97;;
5608;SDS011;2826;51.354;9.588;2022-08-27T04:29:24;27.63;;;12.77;;
5608;SDS011;2826;51.354;9.588;2022-08-27T04:31:53;23.33;;;14.13;;
5608;SDS011;2826;51.354;9.588;2022-08-27T04:34:20;20.00;;;12.50;;
5608;SDS011;2826;51.354;9.588;2022-08-27T04:36:47;22.73;;;12.73;;
5608;SDS011;2826;51.354;9.588;2022-08-27T04:39:14;21.53;;;12.17;;
5608;SDS011;2826;51.354;9.588;2022-08-27T04:41:41;17.90;;;12.80;;
5608;SDS011;2826;51.354;9.588;2022-08-27T04:44:09;21.37;;;12.50;;
5608;SDS011;2826;51.354;9.588;2022-08-27T04:46:37;24.00;;;13.40;;
5608;SDS011;2826;51.354;9.588;2022-08-27T04:49:08;25.40;;;12.77;;
5608;SDS011;2826;51.354;9.588;2022-08-27T04:51:40;20.10;;;12.90;;
5608;SDS011;2826;51.354;9.588;2022-08-27T04:54:07;27.77;;;13.33;;
5608;SDS011;2826;51.354;9.588;2022-08-27T04:56:35;20.77;;;13.23;;
5608;SDS011;2826;51.354;9.588;2022-08-27T04:59:04;20.63;;;13.40;;
5608;SDS011;2826;51.354;9.588;2022-08-27T05:01:32;21.23;;;13.80;;
5608;SDS011;2826;51.354;9.588;2022-08-27T05:04:02;28.30;;;14.03;;
5608;SDS011;2826;51.354;9.588;2022-08-27T05:06:30;20.77;;;14.30;;
5608;SDS011;2826;51.354;9.588;2022-08-27T05:08:58;21.10;;;14.63;;
5608;SDS011;2826;51.354;9.588;2022-08-27T05:11:25;21.77;;;13.93;;
5608;SDS011;2826;51.354;9.588;2022-08-27T05:13:56;24.97;;;14.20;;
5608;SDS011;2826;51.354;9.588;2022-08-27T05:16:23;21.43;;;14.27;;
5608;SDS011;2826;51.354;9.588;2022-08-27T05:18:51;20.20;;;14.37;;
5608;SDS011;2826;51.354;9.588;2022-08-27T05:21:19;20.07;;;13.40;;
5608;SDS011;2826;51.354;9.588;2022-08-27T05:23:51;23.70;;;14.17;;
5608;SDS011;2826;51.354;9.588;2022-08-27T05:26:20;20.80;;;13.97;;
5608;SDS011;2826;51.354;9.588;2022-08-27T05:28:48;23.60;;;14.13;;
5608;SDS011;2826;51.354;9.588;2022-08-27T05:31:15;22.83;;;15.00;;
5608;SDS011;2826;51.354;9.588;2022-08-27T05:33:44;18.67;;;14.50;;
5608;SDS011;2826;51.354;9.588;2022-08-27T05:36:16;19.53;;;14.10;;
5608;SDS011;2826;51.354;9.588;2022-08-27T05:38:44;18.30;;;13.57;;
5608;SDS011;2826;51.354;9.588;2022-08-27T05:41:15;15.80;;;12.23;;
5608;SDS011;2826;51.354;9.588;2022-08-27T05:43:44;17.93;;;13.27;;
5608;SDS011;2826;51.354;9.588;2022-08-27T05:46:12;22.60;;;13.70;;
5608;SDS011;2826;51.354;9.588;2022-08-27T05:48:41;16.10;;;12.27;;
5608;SDS011;2826;51.354;9.588;2022-08-27T05:51:08;16.53;;;12.53;;
5608;SDS011;2826;51.354;9.588;2022-08-27T05:53:37;18.40;;;11.40;;
5608;SDS011;2826;51.354;9.588;2022-08-27T05:56:04;18.10;;;11.50;;
5608;SDS011;2826;51.354;9.588;2022-08-27T05:58:39;20.57;;;12.80;;
5608;SDS011;2826;51.354;9.588;2022-08-27T06:01:23;19.73;;;13.50;;
5608;SDS011;2826;51.354;9.588;2022-08-27T06:03:50;30.60;;;14.07;;
5608;SDS011;2826;51.354;9.588;2022-08-27T06:06:19;21.30;;;15.50;;
5608;SDS011;2826;51.354;9.588;2022-08-27T06:08:47;28.43;;;15.67;;
5608;SDS011;2826;51.354;9.588;2022-08-27T06:11:15;27.23;;;15.30;;
5608;SDS011;2826;51.354;9.588;2022-08-27T06:13:45;23.33;;;15.47;;
5608;SDS011;2826;51.354;9.588;2022-08-27T06:16:13;28.60;;;15.90;;
5608;SDS011;2826;51.354;9.588;2022-08-27T06:18:42;24.20;;;16.23;;
5608;SDS011;2826;51.354;9.588;2022-08-27T06:21:10;23.90;;;15.83;;
5608;SDS011;2826;51.354;9.588;2022-08-27T06:23:38;23.70;;;15.30;;
5608;SDS011;2826;51.354;9.588;2022-08-27T06:26:05;26.93;;;15.80;;
5608;SDS011;2826;51.354;9.588;2022-08-27T06:28:34;31.73;;;16.50;;
5608;SDS011;2826;51.354;9.588;2022-08-27T06:31:02;34.13;;;17.00;;
5608;SDS011;2826;51.354;9.588;2022-08-27T06:33:30;24.40;;;15.20;;
5608;SDS011;2826;51.354;9.588;2022-08-27T06:35:57;28.17;;;17.47;;
5608;SDS011;2826;51.354;9.588;2022-08-27T06:38:24;32.40;;;17.97;;
5608;SDS011;2826;51.354;9.588;2022-08-27T06:40:51;33.80;;;17.03;;
5608;SDS011;2826;51.354;9.588;2022-08-27T06:43:18;27.63;;;16.80;;
5608;SDS011;2826;51.354;9.588;2022-08-27T06:45:45;26.63;;;16.40;;
5608;SDS011;2826;51.354;9.588;2022-08-27T06:48:13;26.30;;;17.00;;
5608;SDS011;2826;51.354;9.588;2022-08-27T06:50:41;35.00;;;17.50;;
5608;SDS011;2826;51.354;9.588;2022-08-27T06:53:09;26.07;;;16.90;;
5608;SDS011;2826;51.354;9.588;2022-08-27T06:55:39;30.03;;;16.20;;
5608;SDS011;2826;51.354;9.588;2022-08-27T06:58:06;25.10;;;15.13;;
5608;SDS011;2826;51.354;9.588;2022-08-27T07:00:33;27.33;;;14.80;;
5608;SDS011;2826;51.354;9.588;2022-08-27T07:03:00;32.07;;;17.40;;
5608;SDS011;2826;51.354;9.588;2022-08-27T07:05:30;28.93;;;15.37;;
5608;SDS011;2826;51.354;9.588;2022-08-27T07:07:58;39.00;;;15.40;;
5608;SDS011;2826;51.354;9.588;2022-08-27T07:10:24;32.67;;;16.07;;
5608;SDS011;2826;51.354;9.588;2022-08-27T07:12:51;34.50;;;15.60;;
5608;SDS011;2826;51.354;9.588;2022-08-27T07:15:18;30.97;;;16.23;;
5608;SDS011;2826;51.354;9.588;2022-08-27T07:17:45;31.43;;;16.03;;
5608;SDS011;2826;51.354;9.588;2022-08-27T07:20:12;42.83;;;17.53;;
5608;SDS011;2826;51.354;9.588;2022-08-27T07:22:43;32.43;;;16.40;;
5608;SDS011;2826;51.354;9.588;2022-08-27T07:25:13;32.50;;;14.83;;
5608;SDS011;2826;51.354;9.588;2022-08-27T07:27:44;25.70;;;14.93;;
5608;SDS011;2826;51.354;9.588;2022-08-27T07:30:11;29.33;;;14.00;;
5608;SDS011;2826;51.354;9.588;2022-08-27T07:32:40;27.40;;;15.17;;
5608;SDS011;2826;51.354;9.588;2022-08-27T07:35:07;41.10;;;14.57;;
5608;SDS011;2826;51.354;9.588;2022-08-27T07:37:34;27.57;;;15.10;;
5608;SDS011;2826;51.354;9.588;2022-08-27T07:40:03;26.47;;;12.00;;
5608;SDS011;2826;51.354;9.588;2022-08-27T07:42:31;36.60;;;13.90;;
5608;SDS011;2826;51.354;9.588;2022-08-27T07:45:16;26.07;;;13.80;;
5608;SDS011;2826;51.354;9.588;2022-08-27T07:47:43;25.17;;;14.17;;
5608;SDS011;2826;51.354;9.588;2022-08-27T07:50:10;25.30;;;14.47;;
5608;SDS011;2826;51.354;9.588;2022-08-27T07:52:37;28.13;;;14.27;;
5608;SDS011;2826;51.354;9.588;2022-08-27T07:55:05;34.77;;;14.60;;
5608;SDS011;2826;51.354;9.588;2022-08-27T07:57:32;29.23;;;12.57;;
5608;SDS011;2826;51.354;9.588;2022-08-27T07:59:59;28.00;;;14.60;;
5608;SDS011;2826;51.354;9.588;2022-08-27T08:02:26;37.17;;;13.67;;
5608;SDS011;2826;51.354;9.588;2022-08-27T08:04:55;26.27;;;13.90;;
5608;SDS011;2826;51.354;9.588;2022-08-27T08:07:22;36.77;;;13.90;;
5608;SDS011;2826;51.354;9.588;2022-08-27T08:09:49;23.13;;;13.50;;
5608;SDS011;2826;51.354;9.588;2022-08-27T08:12:17;25.47;;;12.77;;
5608;SDS011;2826;51.354;9.588;2022-08-27T08:14:44;23.47;;;12.80;;
5608;SDS011;2826;51.354;9.588;2022-08-27T08:17:11;24.10;;;11.63;;
5608;SDS011;2826;51.354;9.588;2022-08-27T08:19:38;23.67;;;11.90;;
5608;SDS011;2826;51.354;9.588;2022-08-27T08:22:05;31.27;;;13.70;;
5608;SDS011;2826;51.354;9.588;2022-08-27T08:24:32;27.30;;;11.97;;
5608;SDS011;2826;51.354;9.588;2022-08-27T08:27:00;20.73;;;11.87;;
5608;SDS011;2826;51.354;9.588;2022-08-27T08:29:29;20.83;;;11.50;;
5608;SDS011;2826;51.354;9.588;2022-08-27T08:31:56;18.50;;;11.67;;
5608;SDS011;2826;51.354;9.588;2022-08-27T08:34:22;29.93;;;11.60;;
5608;SDS011;2826;51.354;9.588;2022-08-27T08:36:49;22.60;;;10.97;;
5608;SDS011;2826;51.354;9.588;2022-08-27T08:39:17;20.43;;;11.53;;
5608;SDS011;2826;51.354;9.588;2022-08-27T08:41:47;20.13;;;10.40;;
5608;SDS011;2826;51.354;9.588;2022-08-27T08:44:19;32.40;;;12.20;;
5608;SDS011;2826;51.354;9.588;2022-08-27T08:46:57;20.80;;;10.53;;
5608;SDS011;2826;51.354;9.588;2022-08-27T08:49:38;18.53;;;10.87;;
5608;SDS011;2826;51.354;9.588;2022-08-27T08:52:18;19.63;;;9.80;;
5608;SDS011;2826;51.354;9.588;2022-08-27T08:54:52;26.70;;;10.40;;
5608;SDS011;2826;51.354;9.588;2022-08-27T08:57:27;19.50;;;9.97;;
5608;SDS011;2826;51.354;9.588;2022-08-27T09:00:00;23.40;;;11.47;;
5608;SDS011;2826;51.354;9.588;2022-08-27T09:02:32;23.83;;;11.70;;
5608;SDS011;2826;51.354;9.588;2022-08-27T09:05:00;22.13;;;10.80;;
5608;SDS011;2826;51.354;9.588;2022-08-27T09:07:31;31.80;;;11.53;;
5608;SDS011;2826;51.354;9.588;2022-08-27T09:10:08;27.90;;;10.70;;
5608;SDS011;2826;51.354;9.588;2022-08-27T09:12:39;29.70;;;10.90;;
5608;SDS011;2826;51.354;9.588;2022-08-27T09:15:06;18.23;;;9.57;;
5608;SDS011;2826;51.354;9.588;2022-08-27T09:17:40;21.40;;;11.43;;
5608;SDS011;2826;51.354;9.588;2022-08-27T09:20:07;30.40;;;10.93;;
5608;SDS011;2826;51.354;9.588;2022-08-27T09:22:39;41.37;;;11.20;;
5608;SDS011;2826;51.354;9.588;2022-08-27T09:25:16;22.03;;;10.83;;
5608;SDS011;2826;51.354;9.588;2022-08-27T09:27:50;21.43;;;11.33;;
5608;SDS011;2826;51.354;9.588;2022-08-27T09:30:21;28.43;;;11.10;;
5608;SDS011;2826;51.354;9.588;2022-08-27T09:32:54;24.90;;;10.17;;
5608;SDS011;2826;51.354;9.588;2022-08-27T09:35:24;18.70;;;10.40;;
5608;SDS011;2826;51.354;9.588;2022-08-27T09:37:53;26.10;;;10.00;;
5608;SDS011;2826;51.354;9.588;2022-08-27T09:40:24;20.80;;;10.50;;
5608;SDS011;2826;51.354;9.588;2022-08-27T09:42:56;18.10;;;9.30;;
5608;SDS011;2826;51.354;9.588;2022-08-27T09:45:32;27.30;;;10.23;;
5608;SDS011;2826;51.354;9.588;2022-08-27T09:48:04;21.63;;;10.90;;
5608;SDS011;2826;51.354;9.588;2022-08-27T09:50:34;19.80;;;10.03;;
5608;SDS011;2826;51.354;9.588;2022-08-27T09:53:02;15.70;;;8.87;;
5608;SDS011;2826;51.354;9.588;2022-08-27T09:55:34;17.07;;;9.13;;
5608;SDS011;2826;51.354;9.588;2022-08-27T09:58:06;18.30;;;8.37;;
5608;SDS011;2826;51.354;9.588;2022-08-27T10:00:41;25.83;;;8.93;;
5608;SDS011;2826;51.354;9.588;2022-08-27T10:03:09;20.07;;;8.73;;
5608;SDS011;2826;51.354;9.588;2022-08-27T10:05:38;20.23;;;8.20;;
5608;SDS011;2826;51.354;9.588;2022-08-27T10:08:14;29.83;;;10.13;;
5608;SDS011;2826;51.354;9.588;2022-08-27T10:10:48;24.20;;;9.60;;
5608;SDS011;2826;51.354;9.588;2022-08-27T10:13:22;24.53;;;9.90;;
5608;SDS011;2826;51.354;9.588;2022-08-27T10:16:01;27.30;;;8.90;;
5608;SDS011;2826;51.354;9.588;2022-08-27T10:18:49;21.83;;;9.57;;
5608;SDS011;2826;51.354;9.588;2022-08-27T10:21:23;21.17;;;10.67;;
5608;SDS011;2826;51.354;9.588;2022-08-27T10:24:00;19.17;;;9.67;;
5608;SDS011;2826;51.354;9.588;2022-08-27T10:26:39;18.23;;;8.80;;
5608;SDS011;2826;51.354;9.588;2022-08-27T10:29:11;16.60;;;10.30;;
5608;SDS011;2826;51.354;9.588;2022-08-27T10:31:49;16.93;;;8.43;;
5608;SDS011;2826;51.354;9.588;2022-08-27T10:34:29;16.43;;;8.50;;
5608;SDS011;2826;51.354;9.588;2022-08-27T10:37:03;16.87;;;8.87;;
5608;SDS011;2826;51.354;9.588;2022-08-27T10:39:48;24.73;;;9.57;;
5608;SDS011;2826;51.354;9.588;2022-08-27T10:42:23;22.77;;;10.63;;
5608;SDS011;2826;51.354;9.588;2022-08-27T10:44:58;13.03;;;8.20;;
5608;SDS011;2826;51.354;9.588;2022-08-27T10:47:39;18.23;;;8.83;;
5608;SDS011;2826;51.354;9.588;2022-08-27T10:50:16;16.73;;;8.10;;
5608;SDS011;2826;51.354;9.588;2022-08-27T10:52:53;21.60;;;8.83;;
5608;SDS011;2826;51.354;9.588;2022-08-27T10:55:27;15.33;;;8.30;;
5608;SDS011;2826;51.354;9.588;2022-08-27T10:58:01;15.90;;;7.47;;
5608;SDS011;2826;51.354;9.588;2022-08-27T11:00:44;13.23;;;6.97;;
5608;SDS011;2826;51.354;9.588;2022-08-27T11:03:17;20.03;;;7.83;;
5608;SDS011;2826;51.354;9.588;2022-08-27T11:05:51;11.50;;;6.73;;
5608;SDS011;2826;51.354;9.588;2022-08-27T11:08:20;22.87;;;8.20;;
5608;SDS011;2826;51.354;9.588;2022-08-27T11:10:53;14.77;;;6.77;;
5608;SDS011;2826;51.354;9.588;2022-08-27T11:13:28;10.17;;;6.60;;
5608;SDS011;2826;51.354;9.588;2022-08-27T11:15:59;15.73;;;7.77;;
5608;SDS011;2826;51.354;9.588;2022-08-27T11:18:32;11.27;;;6.37;;
5608;SDS011;2826;51.354;9.588;2022-08-27T11:21:06;10.97;;;7.40;;
5608;SDS011;2826;51.354;9.588;2022-08-27T11:23:40;12.80;;;6.73;;
5608;SDS011;2826;51.354;9.588;2022-08-27T11:26:11;13.00;;;6.43;;
5608;SDS011;2826;51.354;9.588;2022-08-27T11:28:38;12.63;;;6.07;;
5608;SDS011;2826;51.354;9.588;2022-08-27T11:31:08;17.10;;;6.73;;
5608;SDS011;2826;51.354;9.588;2022-08-27T11:33:43;12.57;;;6.83;;
5608;SDS011;2826;51.354;9.588;2022-08-27T11:39:16;12.10;;;6.27;;
5608;SDS011;2826;51.354;9.588;2022-08-27T11:41:57;16.23;;;6.30;;
5608;SDS011;2826;51.354;9.588;2022-08-27T11:44:30;18.10;;;6.50;;
5608;SDS011;2826;51.354;9.588;2022-08-27T11:46:57;16.83;;;6.80;;
5608;SDS011;2826;51.354;9.588;2022-08-27T11:49:40;14.97;;;6.50;;
5608;SDS011;2826;51.354;9.588;2022-08-27T11:52:18;9.97;;;6.33;;
5608;SDS011;2826;51.354;9.588;2022-08-27T11:54:48;15.53;;;6.50;;
5608;SDS011;2826;51.354;9.588;2022-08-27T11:57:28;11.13;;;6.40;;
5608;SDS011;2826;51.354;9.588;2022-08-27T11:59:57;8.13;;;5.27;;
5608;SDS011;2826;51.354;9.588;2022-08-27T12:02:26;17.07;;;5.70;;
5608;SDS011;2826;51.354;9.588;2022-08-27T12:05:05;11.10;;;6.20;;
5608;SDS011;2826;51.354;9.588;2022-08-27T12:07:35;17.00;;;6.13;;
5608;SDS011;2826;51.354;9.588;2022-08-27T12:10:08;11.27;;;5.90;;
5608;SDS011;2826;51.354;9.588;2022-08-27T12:12:58;9.10;;;5.37;;
5608;SDS011;2826;51.354;9.588;2022-08-27T12:15:43;8.40;;;5.23;;
5608;SDS011;2826;51.354;9.588;2022-08-27T12:18:26;11.73;;;5.10;;
5608;SDS011;2826;51.354;9.588;2022-08-27T12:21:08;12.17;;;5.50;;
5608;SDS011;2826;51.354;9.588;2022-08-27T12:23:45;14.97;;;4.90;;
5608;SDS011;2826;51.354;9.588;2022-08-27T12:26:36;10.93;;;5.50;;
5608;SDS011;2826;51.354;9.588;2022-08-27T12:29:19;10.10;;;5.20;;
5608;SDS011;2826;51.354;9.588;2022-08-27T12:31:54;11.97;;;5.20;;
5608;SDS011;2826;51.354;9.588;2022-08-27T12:34:28;10.13;;;4.60;;
5608;SDS011;2826;51.354;9.588;2022-08-27T12:37:06;7.67;;;4.43;;
5608;SDS011;2826;51.354;9.588;2022-08-27T12:39:36;7.87;;;4.90;;
5608;SDS011;2826;51.354;9.588;2022-08-27T12:42:10;15.83;;;4.57;;
5608;SDS011;2826;51.354;9.588;2022-08-27T12:44:38;7.43;;;4.77;;
5608;SDS011;2826;51.354;9.588;2022-08-27T12:47:06;12.33;;;5.43;;
5608;SDS011;2826;51.354;9.588;2022-08-27T12:49:38;10.93;;;4.87;;
5608;SDS011;2826;51.354;9.588;2022-08-27T12:52:12;7.97;;;4.80;;
5608;SDS011;2826;51.354;9.588;2022-08-27T12:54:57;18.30;;;5.30;;
5608;SDS011;2826;51.354;9.588;2022-08-27T12:57:37;12.17;;;4.63;;
5608;SDS011;2826;51.354;9.588;2022-08-27T13:00:12;11.63;;;4.20;;
5608;SDS011;2826;51.354;9.588;2022-08-27T13:02:54;6.20;;;3.77;;
5608;SDS011;2826;51.354;9.588;2022-08-27T13:05:36;9.73;;;4.20;;
5608;SDS011;2826;51.354;9.588;2022-08-27T13:08:15;12.63;;;3.90;;
5608;SDS011;2826;51.354;9.588;2022-08-27T13:10:44;10.97;;;3.47;;
5608;SDS011;2826;51.354;9.588;2022-08-27T13:13:13;9.53;;;3.70;;
5608;SDS011;2826;51.354;9.588;2022-08-27T13:15:42;6.30;;;3.73;;
5608;SDS011;2826;51.354;9.588;2022-08-27T13:18:11;9.43;;;4.77;;
5608;SDS011;2826;51.354;9.588;2022-08-27T13:20:40;7.80;;;3.50;;
5608;SDS011;2826;51.354;9.588;2022-08-27T13:23:11;9.20;;;3.60;;
5608;SDS011;2826;51.354;9.588;2022-08-27T13:25:40;6.33;;;3.13;;
5608;SDS011;2826;51.354;9.588;2022-08-27T13:28:09;7.13;;;3.50;;
5608;SDS011;2826;51.354;9.588;2022-08-27T13:30:38;9.70;;;3.80;;
5608;SDS011;2826;51.354;9.588;2022-08-27T13:33:08;8.90;;;3.67;;
5608;SDS011;2826;51.354;9.588;2022-08-27T13:35:39;3.90;;;3.53;;
5608;SDS011;2826;51.354;9.588;2022-08-27T13:38:08;9.57;;;3.67;;
5608;SDS011;2826;51.354;9.588;2022-08-27T13:40:36;6.57;;;3.23;;
5608;SDS011;2826;51.354;9.588;2022-08-27T13:43:16;12.90;;;3.73;;
5608;SDS011;2826;51.354;9.588;2022-08-27T13:45:46;10.03;;;3.50;;
5608;SDS011;2826;51.354;9.588;2022-08-27T13:48:16;8.87;;;3.80;;
5608;SDS011;2826;51.354;9.588;2022-08-27T13:50:46;10.33;;;3.47;;
5608;SDS011;2826;51.354;9.588;2022-08-27T13:53:17;12.77;;;3.77;;
5608;SDS011;2826;51.354;9.588;2022-08-27T13:56:05;17.17;;;3.70;;
5608;SDS011;2826;51.354;9.588;2022-08-27T13:58:34;6.60;;;3.80;;
5608;SDS011;2826;51.354;9.588;2022-08-27T14:01:06;9.50;;;3.83;;
5608;SDS011;2826;51.354;9.588;2022-08-27T14:03:35;6.90;;;3.17;;
5608;SDS011;2826;51.354;9.588;2022-08-27T14:06:21;10.07;;;4.73;;
5608;SDS011;2826;51.354;9.588;2022-08-27T14:08:49;11.40;;;4.00;;
5608;SDS011;2826;51.354;9.588;2022-08-27T14:11:16;9.20;;;4.20;;
5608;SDS011;2826;51.354;9.588;2022-08-27T14:13:51;14.10;;;4.50;;
5608;SDS011;2826;51.354;9.588;2022-08-27T14:16:24;19.97;;;4.47;;
5608;SDS011;2826;51.354;9.588;2022-08-27T14:18:53;8.00;;;3.97;;
5608;SDS011;2826;51.354;9.588;2022-08-27T14:21:28;9.53;;;4.30;;
5608;SDS011;2826;51.354;9.588;2022-08-27T14:23:55;13.97;;;4.97;;
5608;SDS011;2826;51.354;9.588;2022-08-27T14:26:22;13.20;;;4.10;;
5608;SDS011;2826;51.354;9.588;2022-08-27T14:28:50;12.20;;;4.40;;
5608;SDS011;2826;51.354;9.588;2022-08-27T14:31:17;8.00;;;4.10;;
5608;SDS011;2826;51.354;9.588;2022-08-27T14:33:43;8.57;;;3.80;;
5608;SDS011;2826;51.354;9.588;2022-08-27T14:36:11;5.70;;;4.07;;
5608;SDS011;2826;51.354;9.588;2022-08-27T14:38:40;5.73;;;4.13;;
5608;SDS011;2826;51.354;9.588;2022-08-27T14:41:11;8.13;;;4.20;;
5608;SDS011;2826;51.354;9.588;2022-08-27T14:43:38;9.87;;;3.80;;
5608;SDS011;2826;51.354;9.588;2022-08-27T14:46:07;9.43;;;4.40;;
5608;SDS011;2826;51.354;9.588;2022-08-27T14:48:39;4.40;;;3.10;;
5608;SDS011;2826;51.354;9.588;2022-08-27T14:51:10;8.70;;;3.53;;
5608;SDS011;2826;51.354;9.588;2022-08-27T14:53:41;7.13;;;3.87;;
5608;SDS011;2826;51.354;9.588;2022-08-27T14:56:08;8.47;;;3.33;;
5608;SDS011;2826;51.354;9.588;2022-08-27T14:58:38;3.90;;;2.90;;
5608;SDS011;2826;51.354;9.588;2022-08-27T15:01:06;4.23;;;3.30;;
5608;SDS011;2826;51.354;9.588;2022-08-27T15:03:34;4.73;;;3.30;;
5608;SDS011;2826;51.354;9.588;2022-08-27T15:06:04;4.00;;;3.53;;
5608;SDS011;2826;51.354;9.588;2022-08-27T15:08:31;5.33;;;3.80;;
5608;SDS011;2826;51.354;9.588;2022-08-27T15:10:58;4.93;;;3.90;;
5608;SDS011;2826;51.354;9.588;2022-08-27T15:13:26;7.50;;;3.80;;
5608;SDS011;2826;51.354;9.588;2022-08-27T15:15:53;4.07;;;3.57;;